sensor_id;sensor_type;location;lat;lon;timestamp;pressure;altitude;pressure_sealevel;temperature;humidity
4199;BME280;2113;50.946;14.610;2023-12-20T00:02:24;96597.38;;;3.33;92.88
4199;BME280;2113;50.946;14.610;2023-12-20T00:04:52;96605.50;;;3.38;92.60
4199;BME280;2113;50.946;14.610;2023-12-20T00:07:21;96597.69;;;3.38;91.71
4199;BME280;2113;50.946;14.610;2023-12-20T00:09:50;96600.31;;;3.38;91.89
4199;BME280;2113;50.946;14.610;2023-12-20T00:12:18;96598.69;;;3.37;91.87
4199;BME280;2113;50.946;14.610;2023-12-20T00:14:46;96599.00;;;3.34;91.53
4199;BME280;2113;50.946;14.610;2023-12-20T00:17:16;96588.06;;;3.38;91.42
4199;BME280;2113;50.946;14.610;2023-12-20T00:19:44;96575.88;;;3.39;91.45
4199;BME280;2113;50.946;14.610;2023-12-20T00:22:12;96583.84;;;3.37;91.06
4199;BME280;2113;50.946;14.610;2023-12-20T00:24:40;96576.19;;;3.36;91.34
4199;BME280;2113;50.946;14.610;2023-12-20T00:27:09;96569.69;;;3.32;91.35
4199;BME280;2113;50.946;14.610;2023-12-20T00:29:37;96572.13;;;3.33;90.78
4199;BME280;2113;50.946;14.610;2023-12-20T00:32:05;96565.59;;;3.29;91.12
4199;BME280;2113;50.946;14.610;2023-12-20T00:34:35;96568.03;;;3.30;90.85
4199;BME280;2113;50.946;14.610;2023-12-20T00:37:03;96569.19;;;3.28;90.82
4199;BME280;2113;50.946;14.610;2023-12-20T00:39:32;96571.63;;;3.29;91.00
4199;BME280;2113;50.946;14.610;2023-12-20T00:42:01;96564.16;;;3.26;90.56
4199;BME280;2113;50.946;14.610;2023-12-20T00:44:28;96564.31;;;3.25;91.06
4199;BME280;2113;50.946;14.610;2023-12-20T00:46:57;96557.47;;;3.24;90.84
4199;BME280;2113;50.946;14.610;2023-12-20T00:49:25;96565.78;;;3.19;91.20
4199;BME280;2113;50.946;14.610;2023-12-20T00:51:55;96560.56;;;3.19;91.08
4199;BME280;2113;50.946;14.610;2023-12-20T00:54:23;96557.78;;;3.21;91.25
4199;BME280;2113;50.946;14.610;2023-12-20T00:56:51;96558.94;;;3.18;91.00
4199;BME280;2113;50.946;14.610;2023-12-20T00:59:20;96549.81;;;3.14;91.62
4199;BME280;2113;50.946;14.610;2023-12-20T01:01:48;96551.13;;;3.10;91.20
4199;BME280;2113;50.946;14.610;2023-12-20T01:04:16;96547.53;;;3.11;91.18
4199;BME280;2113;50.946;14.610;2023-12-20T01:06:44;96545.91;;;3.10;90.90
4199;BME280;2113;50.946;14.610;2023-12-20T01:09:14;96542.81;;;3.07;90.62
4199;BME280;2113;50.946;14.610;2023-12-20T01:11:42;96542.00;;;3.06;90.12
4199;BME280;2113;50.946;14.610;2023-12-20T01:14:10;96543.28;;;3.02;90.12
4199;BME280;2113;50.946;14.610;2023-12-20T01:16:39;96532.88;;;3.02;90.19
4199;BME280;2113;50.946;14.610;2023-12-20T01:23:54;96521.81;;;2.92;90.23
4199;BME280;2113;50.946;14.610;2023-12-20T01:26:25;96533.03;;;2.92;90.37
4199;BME280;2113;50.946;14.610;2023-12-20T01:33:03;96518.88;;;2.87;91.53
4199;BME280;2113;50.946;14.610;2023-12-20T01:35:32;96520.81;;;2.85;91.36
4199;BME280;2113;50.946;14.610;2023-12-20T01:38:05;96516.59;;;2.84;91.20
4199;BME280;2113;50.946;14.610;2023-12-20T01:40:34;96514.16;;;2.82;91.78
4199;BME280;2113;50.946;14.610;2023-12-20T01:43:07;96518.69;;;2.80;91.36
4199;BME280;2113;50.946;14.610;2023-12-20T01:45:37;96520.31;;;2.81;91.88
4199;BME280;2113;50.946;14.610;2023-12-20T01:48:08;96503.06;;;2.72;91.93
4199;BME280;2113;50.946;14.610;2023-12-20T01:50:36;96493.97;;;2.68;92.19
4199;BME280;2113;50.946;14.610;2023-12-20T01:53:07;96499.66;;;2.63;92.17
4199;BME280;2113;50.946;14.610;2023-12-20T01:55:39;96504.03;;;2.63;91.49
4199;BME280;2113;50.946;14.610;2023-12-20T01:58:11;96499.31;;;2.58;91.78
4199;BME280;2113;50.946;14.610;2023-12-20T02:00:48;96492.47;;;2.57;92.21
4199;BME280;2113;50.946;14.610;2023-12-20T02:03:19;96491.50;;;2.58;91.68
4199;BME280;2113;50.946;14.610;2023-12-20T02:05:48;96495.41;;;2.54;91.41
4199;BME280;2113;50.946;14.610;2023-12-20T02:08:16;96503.22;;;2.54;91.98
4199;BME280;2113;50.946;14.610;2023-12-20T02:10:44;96514.75;;;2.52;92.05
4199;BME280;2113;50.946;14.610;2023-12-20T02:13:14;96499.47;;;2.48;91.85
4199;BME280;2113;50.946;14.610;2023-12-20T02:15:42;96500.75;;;2.53;91.37
4199;BME280;2113;50.946;14.610;2023-12-20T02:18:11;96496.69;;;2.50;91.33
4199;BME280;2113;50.946;14.610;2023-12-20T02:20:43;96504.66;;;2.48;90.70
4199;BME280;2113;50.946;14.610;2023-12-20T02:23:13;96506.59;;;2.46;90.68
4199;BME280;2113;50.946;14.610;2023-12-20T02:25:41;96502.53;;;2.44;91.11
4199;BME280;2113;50.946;14.610;2023-12-20T02:28:10;96495.69;;;2.43;91.04
4199;BME280;2113;50.946;14.610;2023-12-20T02:30:39;96497.66;;;2.41;90.77
4199;BME280;2113;50.946;14.610;2023-12-20T02:33:08;96483.97;;;2.39;90.97
4199;BME280;2113;50.946;14.610;2023-12-20T02:35:39;96477.31;;;2.36;91.30
4199;BME280;2113;50.946;14.610;2023-12-20T02:38:07;96478.28;;;2.35;90.36
4199;BME280;2113;50.946;14.610;2023-12-20T02:40:36;96469.03;;;2.33;90.50
4199;BME280;2113;50.946;14.610;2023-12-20T02:43:05;96469.84;;;2.33;90.85
4199;BME280;2113;50.946;14.610;2023-12-20T02:45:34;96487.38;;;2.31;91.31
4199;BME280;2113;50.946;14.610;2023-12-20T02:48:04;96479.56;;;2.31;91.46
4199;BME280;2113;50.946;14.610;2023-12-20T02:50:32;96483.31;;;2.29;90.79
4199;BME280;2113;50.946;14.610;2023-12-20T02:53:00;96478.44;;;2.26;91.83
4199;BME280;2113;50.946;14.610;2023-12-20T02:55:29;96478.56;;;2.24;91.92
4199;BME280;2113;50.946;14.610;2023-12-20T02:57:58;96466.72;;;2.22;91.45
4199;BME280;2113;50.946;14.610;2023-12-20T03:00:26;96469.97;;;2.24;90.64
4199;BME280;2113;50.946;14.610;2023-12-20T03:02:54;96456.31;;;2.22;90.76
4199;BME280;2113;50.946;14.610;2023-12-20T03:05:22;96456.63;;;2.18;90.60
4199;BME280;2113;50.946;14.610;2023-12-20T03:07:51;96454.97;;;2.17;91.18
4199;BME280;2113;50.946;14.610;2023-12-20T03:10:19;96460.19;;;2.17;91.17
4199;BME280;2113;50.946;14.610;2023-12-20T03:12:53;96449.78;;;2.17;91.24
4199;BME280;2113;50.946;14.610;2023-12-20T03:15:22;96459.53;;;2.15;91.05
4199;BME280;2113;50.946;14.610;2023-12-20T03:17:50;96460.50;;;2.14;90.68
4199;BME280;2113;50.946;14.610;2023-12-20T03:20:19;96457.28;;;2.12;91.32
4199;BME280;2113;50.946;14.610;2023-12-20T03:22:47;96455.31;;;2.14;90.85
4199;BME280;2113;50.946;14.610;2023-12-20T03:25:15;96460.81;;;2.11;90.87
4199;BME280;2113;50.946;14.610;2023-12-20T03:27:43;96460.97;;;2.10;91.00
4199;BME280;2113;50.946;14.610;2023-12-20T03:30:12;96464.41;;;2.10;91.03
4199;BME280;2113;50.946;14.610;2023-12-20T03:32:42;96464.25;;;2.12;91.00
4199;BME280;2113;50.946;14.610;2023-12-20T03:35:10;96467.16;;;2.09;91.09
4199;BME280;2113;50.946;14.610;2023-12-20T03:37:38;96464.41;;;2.10;91.29
4199;BME280;2113;50.946;14.610;2023-12-20T03:40:07;96465.53;;;2.08;91.60
4199;BME280;2113;50.946;14.610;2023-12-20T03:42:35;96461.47;;;2.05;91.40
4199;BME280;2113;50.946;14.610;2023-12-20T03:45:04;96457.22;;;2.04;91.57
4199;BME280;2113;50.946;14.610;2023-12-20T03:47:34;96463.41;;;2.03;91.13
4199;BME280;2113;50.946;14.610;2023-12-20T03:50:05;96459.00;;;2.04;91.49
4199;BME280;2113;50.946;14.610;2023-12-20T03:52:33;96456.56;;;2.02;91.89
4199;BME280;2113;50.946;14.610;2023-12-20T03:55:01;96446.16;;;2.02;91.08
4199;BME280;2113;50.946;14.610;2023-12-20T03:57:30;96454.78;;;2.03;91.64
4199;BME280;2113;50.946;14.610;2023-12-20T03:59:58;96455.28;;;1.98;91.34
4199;BME280;2113;50.946;14.610;2023-12-20T04:02:26;96462.91;;;2.00;92.10
4199;BME280;2113;50.946;14.610;2023-12-20T04:04:54;96463.09;;;1.98;91.98
4199;BME280;2113;50.946;14.610;2023-12-20T04:07:24;96468.56;;;1.95;91.67
4199;BME280;2113;50.946;14.610;2023-12-20T04:09:53;96465.97;;;1.95;92.06
4199;BME280;2113;50.946;14.610;2023-12-20T04:12:21;96472.66;;;1.98;91.47
4199;BME280;2113;50.946;14.610;2023-12-20T04:14:49;96471.19;;;1.95;91.69
4199;BME280;2113;50.946;14.610;2023-12-20T04:17:17;96470.53;;;1.93;91.43
4199;BME280;2113;50.946;14.610;2023-12-20T04:19:45;96469.88;;;1.91;91.80
4199;BME280;2113;50.946;14.610;2023-12-20T04:22:14;96470.19;;;1.88;92.10
4199;BME280;2113;50.946;14.610;2023-12-20T04:24:43;96459.94;;;1.86;92.07
4199;BME280;2113;50.946;14.610;2023-12-20T04:27:11;96463.03;;;1.90;91.28
4199;BME280;2113;50.946;14.610;2023-12-20T04:29:39;96468.88;;;1.84;91.41
4199;BME280;2113;50.946;14.610;2023-12-20T04:32:08;96474.56;;;1.87;91.42
4199;BME280;2113;50.946;14.610;2023-12-20T04:34:36;96463.34;;;1.87;91.05
4199;BME280;2113;50.946;14.610;2023-12-20T04:37:04;96461.22;;;1.82;91.50
4199;BME280;2113;50.946;14.610;2023-12-20T04:39:32;96459.75;;;1.80;91.88
4199;BME280;2113;50.946;14.610;2023-12-20T04:42:03;96459.91;;;1.78;91.40
4199;BME280;2113;50.946;14.610;2023-12-20T04:44:31;96455.53;;;1.79;91.44
4199;BME280;2113;50.946;14.610;2023-12-20T04:46:59;96462.34;;;1.80;91.93
4199;BME280;2113;50.946;14.610;2023-12-20T04:49:28;96447.06;;;1.77;92.05
4199;BME280;2113;50.946;14.610;2023-12-20T04:51:56;96449.00;;;1.75;92.28
4199;BME280;2113;50.946;14.610;2023-12-20T04:54:24;96451.59;;;1.75;92.51
4199;BME280;2113;50.946;14.610;2023-12-20T04:56:52;96452.56;;;1.74;92.44
4199;BME280;2113;50.946;14.610;2023-12-20T04:59:21;96449.69;;;1.77;92.61
4199;BME280;2113;50.946;14.610;2023-12-20T05:01:50;96456.81;;;1.75;92.12
4199;BME280;2113;50.946;14.610;2023-12-20T05:04:18;96448.34;;;1.73;92.56
4199;BME280;2113;50.946;14.610;2023-12-20T05:06:47;96453.72;;;1.71;92.95
4199;BME280;2113;50.946;14.610;2023-12-20T05:09:16;96454.53;;;1.72;92.58
4199;BME280;2113;50.946;14.610;2023-12-20T05:11:44;96456.81;;;1.75;93.03
4199;BME280;2113;50.946;14.610;2023-12-20T05:14:12;96449.81;;;1.75;92.69
4199;BME280;2113;50.946;14.610;2023-12-20T05:16:42;96449.97;;;1.74;92.81
4199;BME280;2113;50.946;14.610;2023-12-20T05:19:10;96449.97;;;1.74;92.58
4199;BME280;2113;50.946;14.610;2023-12-20T05:21:38;96458.09;;;1.71;92.50
4199;BME280;2113;50.946;14.610;2023-12-20T05:24:06;96452.56;;;1.74;93.26
4199;BME280;2113;50.946;14.610;2023-12-20T05:26:34;96458.59;;;1.74;93.09
4199;BME280;2113;50.946;14.610;2023-12-20T05:29:02;96458.59;;;1.74;92.35
4199;BME280;2113;50.946;14.610;2023-12-20T05:31:31;96458.59;;;1.74;92.47
4199;BME280;2113;50.946;14.610;2023-12-20T05:34:01;96458.75;;;1.73;93.19
4199;BME280;2113;50.946;14.610;2023-12-20T05:36:30;96464.91;;;1.72;93.08
4199;BME280;2113;50.946;14.610;2023-12-20T05:38:58;96462.00;;;1.75;93.13
4199;BME280;2113;50.946;14.610;2023-12-20T05:41:26;96468.97;;;1.74;92.31
4199;BME280;2113;50.946;14.610;2023-12-20T05:43:54;96470.78;;;1.74;92.27
4199;BME280;2113;50.946;14.610;2023-12-20T05:46:24;96476.63;;;1.76;92.49
4199;BME280;2113;50.946;14.610;2023-12-20T05:48:52;96469.78;;;1.75;92.50
4199;BME280;2113;50.946;14.610;2023-12-20T05:51:22;96481.81;;;1.76;92.46
4199;BME280;2113;50.946;14.610;2023-12-20T05:53:50;96475.00;;;1.75;92.19
4199;BME280;2113;50.946;14.610;2023-12-20T05:56:18;96480.19;;;1.75;92.90
4199;BME280;2113;50.946;14.610;2023-12-20T05:58:46;96475.69;;;1.77;93.09
4199;BME280;2113;50.946;14.610;2023-12-20T06:01:15;96482.66;;;1.76;92.57
4199;BME280;2113;50.946;14.610;2023-12-20T06:03:44;96477.47;;;1.76;92.16
4199;BME280;2113;50.946;14.610;2023-12-20T06:06:13;96476.63;;;1.76;93.01
4199;BME280;2113;50.946;14.610;2023-12-20T06:08:44;96472.25;;;1.76;92.83
4199;BME280;2113;50.946;14.610;2023-12-20T06:11:12;96470.00;;;1.81;93.22
4199;BME280;2113;50.946;14.610;2023-12-20T06:13:42;96474.38;;;1.81;92.87
4199;BME280;2113;50.946;14.610;2023-12-20T06:16:10;96487.69;;;1.78;92.94
4199;BME280;2113;50.946;14.610;2023-12-20T06:18:38;96497.28;;;1.77;93.21
4199;BME280;2113;50.946;14.610;2023-12-20T06:21:06;96477.31;;;1.78;93.35
4199;BME280;2113;50.946;14.610;2023-12-20T06:23:35;96485.25;;;1.76;93.51
4199;BME280;2113;50.946;14.610;2023-12-20T06:26:05;96483.31;;;1.78;93.57
4199;BME280;2113;50.946;14.610;2023-12-20T06:28:34;96486.72;;;1.79;93.00
4199;BME280;2113;50.946;14.610;2023-12-20T06:31:04;96481.81;;;1.76;93.18
4199;BME280;2113;50.946;14.610;2023-12-20T06:33:33;96485.25;;;1.76;93.81
4199;BME280;2113;50.946;14.610;2023-12-20T06:36:01;96485.75;;;1.80;93.20
4199;BME280;2113;50.946;14.610;2023-12-20T06:38:29;96495.81;;;1.83;93.64
4199;BME280;2113;50.946;14.610;2023-12-20T06:40:57;96489.97;;;1.81;93.63
4199;BME280;2113;50.946;14.610;2023-12-20T06:43:27;96496.78;;;1.82;94.11
4199;BME280;2113;50.946;14.610;2023-12-20T06:46:15;96498.13;;;1.86;93.54
4199;BME280;2113;50.946;14.610;2023-12-20T06:48:44;96515.34;;;1.87;93.11
4199;BME280;2113;50.946;14.610;2023-12-20T06:51:14;96508.88;;;1.91;93.09
4199;BME280;2113;50.946;14.610;2023-12-20T06:53:43;96506.28;;;1.91;93.91
4199;BME280;2113;50.946;14.610;2023-12-20T06:56:11;96513.75;;;1.94;93.10
4199;BME280;2113;50.946;14.610;2023-12-20T06:58:47;96513.91;;;1.92;93.55
4199;BME280;2113;50.946;14.610;2023-12-20T07:01:19;96514.72;;;1.93;93.57
4199;BME280;2113;50.946;14.610;2023-12-20T07:03:48;96514.72;;;1.93;93.37
4199;BME280;2113;50.946;14.610;2023-12-20T07:06:16;96511.31;;;1.92;93.63
4199;BME280;2113;50.946;14.610;2023-12-20T07:08:46;96508.88;;;1.91;93.66
4199;BME280;2113;50.946;14.610;2023-12-20T07:11:14;96516.34;;;1.94;94.05
4199;BME280;2113;50.946;14.610;2023-12-20T07:13:42;96520.41;;;1.97;93.99
4199;BME280;2113;50.946;14.610;2023-12-20T07:16:12;96534.41;;;1.96;93.52
4199;BME280;2113;50.946;14.610;2023-12-20T07:18:40;96533.44;;;1.97;93.86
4199;BME280;2113;50.946;14.610;2023-12-20T07:21:08;96541.09;;;1.98;94.38
4199;BME280;2113;50.946;14.610;2023-12-20T07:23:37;96531.63;;;1.97;93.88
4199;BME280;2113;50.946;14.610;2023-12-20T07:26:05;96544.63;;;1.97;93.91
4199;BME280;2113;50.946;14.610;2023-12-20T07:28:34;96539.31;;;1.99;94.21
4199;BME280;2113;50.946;14.610;2023-12-20T07:31:03;96544.63;;;1.97;94.20
4199;BME280;2113;50.946;14.610;2023-12-20T07:33:34;96545.00;;;2.02;94.54
4199;BME280;2113;50.946;14.610;2023-12-20T07:36:06;96539.63;;;2.04;94.75
4199;BME280;2113;50.946;14.610;2023-12-20T07:38:35;96544.03;;;2.03;95.20
4199;BME280;2113;50.946;14.610;2023-12-20T07:41:04;96547.94;;;2.07;94.99
4199;BME280;2113;50.946;14.610;2023-12-20T07:43:33;96552.81;;;2.10;95.07
4199;BME280;2113;50.946;14.610;2023-12-20T07:46:05;96551.19;;;2.09;95.62
4199;BME280;2113;50.946;14.610;2023-12-20T07:48:35;96545.34;;;2.07;95.01
4199;BME280;2113;50.946;14.610;2023-12-20T07:51:03;96551.19;;;2.09;95.22
4199;BME280;2113;50.946;14.610;2023-12-20T07:53:33;96547.34;;;2.13;95.84
4199;BME280;2113;50.946;14.610;2023-12-20T07:56:02;96551.91;;;2.19;95.65
4199;BME280;2113;50.946;14.610;2023-12-20T07:58:31;96549.63;;;2.25;95.16
4199;BME280;2113;50.946;14.610;2023-12-20T08:01:17;96556.50;;;2.26;95.61
4199;BME280;2113;50.946;14.610;2023-12-20T08:03:48;96549.63;;;2.25;95.52
4199;BME280;2113;50.946;14.610;2023-12-20T08:06:16;96561.63;;;2.17;95.34
4199;BME280;2113;50.946;14.610;2023-12-20T08:08:45;96564.25;;;2.17;95.34
4199;BME280;2113;50.946;14.610;2023-12-20T08:11:27;96563.44;;;2.17;94.61
4199;BME280;2113;50.946;14.610;2023-12-20T08:13:55;96569.16;;;2.20;94.32
4199;BME280;2113;50.946;14.610;2023-12-20T08:16:23;96562.78;;;2.15;94.22
4199;BME280;2113;50.946;14.610;2023-12-20T08:18:52;96567.47;;;2.11;93.98
4199;BME280;2113;50.946;14.610;2023-12-20T08:21:21;96575.59;;;2.08;94.16
4199;BME280;2113;50.946;14.610;2023-12-20T08:23:49;96580.34;;;2.13;93.88
4199;BME280;2113;50.946;14.610;2023-12-20T08:26:19;96572.50;;;2.05;93.36
4199;BME280;2113;50.946;14.610;2023-12-20T08:28:49;96563.19;;;2.02;93.38
4199;BME280;2113;50.946;14.610;2023-12-20T08:31:19;96561.94;;;2.06;92.98
4199;BME280;2113;50.946;14.610;2023-12-20T08:33:48;96557.72;;;2.05;92.99
4199;BME280;2113;50.946;14.610;2023-12-20T08:36:19;96551.53;;;2.06;93.50
4199;BME280;2113;50.946;14.610;2023-12-20T08:38:48;96556.25;;;2.11;93.81
4199;BME280;2113;50.946;14.610;2023-12-20T08:41:17;96546.38;;;2.23;93.05
4199;BME280;2113;50.946;14.610;2023-12-20T08:43:45;96544.16;;;2.44;93.16
4199;BME280;2113;50.946;14.610;2023-12-20T08:46:14;96544.22;;;2.60;92.31
4199;BME280;2113;50.946;14.610;2023-12-20T08:48:43;96549.41;;;2.60;91.53
4199;BME280;2113;50.946;14.610;2023-12-20T08:51:12;96536.91;;;2.56;90.83
4199;BME280;2113;50.946;14.610;2023-12-20T08:53:43;96544.50;;;2.41;90.43
4199;BME280;2113;50.946;14.610;2023-12-20T08:56:12;96552.44;;;2.39;90.64
4199;BME280;2113;50.946;14.610;2023-12-20T08:58:40;96555.91;;;2.48;90.33
4199;BME280;2113;50.946;14.610;2023-12-20T09:01:08;96546.34;;;2.65;90.45
4199;BME280;2113;50.946;14.610;2023-12-20T09:03:37;96539.69;;;2.87;90.20
4199;BME280;2113;50.946;14.610;2023-12-20T09:06:06;96548.84;;;2.91;88.96
4199;BME280;2113;50.946;14.610;2023-12-20T09:08:34;96544.09;;;3.02;88.74
4199;BME280;2113;50.946;14.610;2023-12-20T09:11:04;96547.22;;;3.14;87.02
4199;BME280;2113;50.946;14.610;2023-12-20T09:13:32;96557.97;;;3.11;86.49
4199;BME280;2113;50.946;14.610;2023-12-20T09:16:02;96562.19;;;3.20;87.37
4199;BME280;2113;50.946;14.610;2023-12-20T09:18:30;96560.88;;;3.08;87.32
4199;BME280;2113;50.946;14.610;2023-12-20T09:20:58;96561.84;;;2.99;86.63
4199;BME280;2113;50.946;14.610;2023-12-20T09:23:26;96548.50;;;3.02;86.71
4199;BME280;2113;50.946;14.610;2023-12-20T09:25:55;96564.13;;;3.02;85.30
4199;BME280;2113;50.946;14.610;2023-12-20T09:28:25;96564.78;;;2.96;84.80
4199;BME280;2113;50.946;14.610;2023-12-20T09:30:53;96561.22;;;2.97;84.83
4199;BME280;2113;50.946;14.610;2023-12-20T09:33:22;96570.66;;;3.14;84.83
4199;BME280;2113;50.946;14.610;2023-12-20T09:35:51;96562.69;;;3.32;83.07
4199;BME280;2113;50.946;14.610;2023-12-20T09:38:20;96559.75;;;3.35;83.76
4199;BME280;2113;50.946;14.610;2023-12-20T09:40:49;96548.03;;;3.47;83.91
4199;BME280;2113;50.946;14.610;2023-12-20T09:43:19;96549.28;;;3.51;83.33
4199;BME280;2113;50.946;14.610;2023-12-20T09:45:53;96543.47;;;3.41;83.53
4199;BME280;2113;50.946;14.610;2023-12-20T09:48:22;96537.25;;;3.42;82.32
4199;BME280;2113;50.946;14.610;2023-12-20T09:50:51;96537.25;;;3.50;83.76
4199;BME280;2113;50.946;14.610;2023-12-20T09:53:21;96533.66;;;3.51;82.51
4199;BME280;2113;50.946;14.610;2023-12-20T09:55:58;96532.47;;;3.78;82.51
4199;BME280;2113;50.946;14.610;2023-12-20T09:58:27;96543.53;;;3.80;82.25
4199;BME280;2113;50.946;14.610;2023-12-20T10:00:57;96528.81;;;3.40;81.68
4199;BME280;2113;50.946;14.610;2023-12-20T10:03:25;96526.69;;;3.27;82.12
4199;BME280;2113;50.946;14.610;2023-12-20T10:05:56;96521.81;;;3.24;83.23
4199;BME280;2113;50.946;14.610;2023-12-20T10:08:24;96539.38;;;3.22;83.61
4199;BME280;2113;50.946;14.610;2023-12-20T10:10:53;96525.53;;;3.30;82.61
4199;BME280;2113;50.946;14.610;2023-12-20T10:13:22;96528.28;;;3.45;81.64
4199;BME280;2113;50.946;14.610;2023-12-20T10:15:51;96522.09;;;3.38;82.77
4199;BME280;2113;50.946;14.610;2023-12-20T10:18:21;96519.97;;;3.49;83.30
4199;BME280;2113;50.946;14.610;2023-12-20T10:21:04;96507.09;;;3.56;81.96
4199;BME280;2113;50.946;14.610;2023-12-20T10:23:32;96505.81;;;3.60;82.23
4199;BME280;2113;50.946;14.610;2023-12-20T10:26:02;96509.72;;;3.48;81.71
4199;BME280;2113;50.946;14.610;2023-12-20T10:28:33;96514.16;;;3.39;81.63
4199;BME280;2113;50.946;14.610;2023-12-20T10:31:02;96504.84;;;3.53;81.50
4199;BME280;2113;50.946;14.610;2023-12-20T10:33:32;96501.53;;;3.67;81.15
4199;BME280;2113;50.946;14.610;2023-12-20T10:36:00;96490.81;;;3.54;81.95
4199;BME280;2113;50.946;14.610;2023-12-20T10:38:30;96497.34;;;3.50;80.91
4199;BME280;2113;50.946;14.610;2023-12-20T10:40:59;96495.72;;;3.49;81.72
4199;BME280;2113;50.946;14.610;2023-12-20T10:43:30;96486.44;;;3.38;81.22
4199;BME280;2113;50.946;14.610;2023-12-20T10:45:59;96487.38;;;3.45;80.88
4199;BME280;2113;50.946;14.610;2023-12-20T10:48:28;96484.34;;;3.34;81.60
4199;BME280;2113;50.946;14.610;2023-12-20T10:51:01;96476.03;;;3.30;81.14
4199;BME280;2113;50.946;14.610;2023-12-20T10:53:29;96474.72;;;3.34;82.18
4199;BME280;2113;50.946;14.610;2023-12-20T10:56:00;96469.69;;;3.33;81.52
4199;BME280;2113;50.946;14.610;2023-12-20T10:58:32;96471.97;;;3.27;81.93
4199;BME280;2113;50.946;14.610;2023-12-20T11:01:02;96467.75;;;3.26;82.37
4199;BME280;2113;50.946;14.610;2023-12-20T11:03:35;96466.09;;;3.34;81.58
4199;BME280;2113;50.946;14.610;2023-12-20T11:06:09;96464.78;;;3.29;81.50
4199;BME280;2113;50.946;14.610;2023-12-20T11:08:47;96460.50;;;3.45;81.80
4199;BME280;2113;50.946;14.610;2023-12-20T11:11:25;96453.06;;;3.34;81.72
4199;BME280;2113;50.946;14.610;2023-12-20T11:13:59;96456.31;;;3.36;81.26
4199;BME280;2113;50.946;14.610;2023-12-20T11:16:31;96458.56;;;3.47;81.43
4199;BME280;2113;50.946;14.610;2023-12-20T11:19:14;96453.00;;;3.50;80.16
4199;BME280;2113;50.946;14.610;2023-12-20T11:21:45;96452.41;;;3.40;80.70
4199;BME280;2113;50.946;14.610;2023-12-20T11:24:15;96462.69;;;3.33;80.96
4199;BME280;2113;50.946;14.610;2023-12-20T11:26:47;96451.09;;;3.36;81.16
4199;BME280;2113;50.946;14.610;2023-12-20T11:29:32;96449.66;;;3.25;81.20
4199;BME280;2113;50.946;14.610;2023-12-20T11:32:01;96444.78;;;3.22;80.89
4199;BME280;2113;50.946;14.610;2023-12-20T11:34:32;96446.88;;;3.26;80.12
4199;BME280;2113;50.946;14.610;2023-12-20T11:37:03;96439.72;;;3.28;81.15
4199;BME280;2113;50.946;14.610;2023-12-20T11:39:31;96442.28;;;3.37;81.34
4199;BME280;2113;50.946;14.610;2023-12-20T11:42:04;96448.16;;;3.47;80.84
4199;BME280;2113;50.946;14.610;2023-12-20T11:44:33;96437.06;;;3.53;79.21
4199;BME280;2113;50.946;14.610;2023-12-20T11:47:01;96429.88;;;3.55;79.45
4199;BME280;2113;50.946;14.610;2023-12-20T11:49:30;96420.59;;;3.44;79.05
4199;BME280;2113;50.946;14.610;2023-12-20T11:51:59;96422.41;;;3.44;80.60
4199;BME280;2113;50.946;14.610;2023-12-20T11:54:30;96416.38;;;3.43;79.85
4199;BME280;2113;50.946;14.610;2023-12-20T11:56:58;96415.56;;;3.43;79.47
4199;BME280;2113;50.946;14.610;2023-12-20T11:59:26;96411.81;;;3.37;80.39
4199;BME280;2113;50.946;14.610;2023-12-20T12:01:55;96421.78;;;3.34;79.32
4199;BME280;2113;50.946;14.610;2023-12-20T12:04:28;96420.47;;;3.38;79.33
4199;BME280;2113;50.946;14.610;2023-12-20T12:06:57;96432.19;;;3.42;79.54
4199;BME280;2113;50.946;14.610;2023-12-20T12:09:25;96419.81;;;3.36;80.53
4199;BME280;2113;50.946;14.610;2023-12-20T12:11:54;96423.59;;;3.33;80.41
4199;BME280;2113;50.946;14.610;2023-12-20T12:14:23;96421.78;;;3.34;79.54
4199;BME280;2113;50.946;14.610;2023-12-20T12:16:52;96412.63;;;3.38;79.44
4199;BME280;2113;50.946;14.610;2023-12-20T12:19:26;96422.44;;;3.36;79.44
4199;BME280;2113;50.946;14.610;2023-12-20T12:22:04;96403.88;;;3.39;78.97
4199;BME280;2113;50.946;14.610;2023-12-20T12:24:44;96407.41;;;3.38;77.41
4199;BME280;2113;50.946;14.610;2023-12-20T12:27:14;96411.00;;;3.37;77.83
4199;BME280;2113;50.946;14.610;2023-12-20T12:30:00;96393.44;;;3.39;76.83
4199;BME280;2113;50.946;14.610;2023-12-20T12:32:29;96402.88;;;3.40;76.17
4199;BME280;2113;50.946;14.610;2023-12-20T12:34:57;96398.66;;;3.39;76.57
4199;BME280;2113;50.946;14.610;2023-12-20T12:37:26;96396.00;;;3.47;75.23
4199;BME280;2113;50.946;14.610;2023-12-20T12:39:54;96392.41;;;3.48;75.65
4199;BME280;2113;50.946;14.610;2023-12-20T12:42:24;96395.47;;;3.51;75.59
4199;BME280;2113;50.946;14.610;2023-12-20T12:44:55;96385.88;;;3.60;76.17
4199;BME280;2113;50.946;14.610;2023-12-20T12:47:24;96386.44;;;3.70;75.17
4199;BME280;2113;50.946;14.610;2023-12-20T12:49:52;96384.47;;;3.72;75.25
4199;BME280;2113;50.946;14.610;2023-12-20T12:52:21;96385.28;;;3.81;74.77
4199;BME280;2113;50.946;14.610;2023-12-20T12:54:50;96378.41;;;3.88;74.43
4199;BME280;2113;50.946;14.610;2023-12-20T12:57:19;96383.16;;;4.07;75.15
4199;BME280;2113;50.946;14.610;2023-12-20T12:59:49;96371.84;;;3.92;74.10
4199;BME280;2113;50.946;14.610;2023-12-20T13:02:17;96370.09;;;3.84;74.71
4199;BME280;2113;50.946;14.610;2023-12-20T13:04:45;96377.22;;;3.91;74.64
4199;BME280;2113;50.946;14.610;2023-12-20T13:07:13;96362.25;;;3.84;73.90
4199;BME280;2113;50.946;14.610;2023-12-20T13:09:42;96372.91;;;3.75;74.47
4199;BME280;2113;50.946;14.610;2023-12-20T13:12:10;96375.44;;;3.60;74.36
4199;BME280;2113;50.946;14.610;2023-12-20T13:14:39;96378.19;;;3.58;75.53
4199;BME280;2113;50.946;14.610;2023-12-20T13:17:09;96365.28;;;3.65;74.40
4199;BME280;2113;50.946;14.610;2023-12-20T13:19:37;96367.22;;;3.71;74.92
4199;BME280;2113;50.946;14.610;2023-12-20T13:22:06;96363.88;;;3.85;74.46
4199;BME280;2113;50.946;14.610;2023-12-20T13:24:34;96349.84;;;3.86;73.51
4199;BME280;2113;50.946;14.610;2023-12-20T13:27:02;96342.03;;;3.86;73.12
4199;BME280;2113;50.946;14.610;2023-12-20T13:29:31;96358.06;;;3.75;73.55
4199;BME280;2113;50.946;14.610;2023-12-20T13:31:59;96334.31;;;3.70;74.97
4199;BME280;2113;50.946;14.610;2023-12-20T13:34:28;96352.25;;;3.65;74.49
4199;BME280;2113;50.946;14.610;2023-12-20T13:36:57;96352.25;;;3.65;74.20
4199;BME280;2113;50.946;14.610;2023-12-20T13:39:25;96350.63;;;3.64;74.93
4199;BME280;2113;50.946;14.610;2023-12-20T13:41:53;96335.47;;;3.68;73.69
4199;BME280;2113;50.946;14.610;2023-12-20T13:44:26;96346.56;;;3.62;74.38